createdAt,value
2017-09-03T00:01:45.722Z,91.80
2017-09-03T00:04:14.003Z,91.70
2017-09-03T00:06:41.462Z,91.70
2017-09-03T00:09:08.914Z,91.70
2017-09-03T00:11:36.451Z,91.80
2017-09-03T00:14:04.723Z,91.70
2017-09-03T00:16:32.287Z,91.70
2017-09-03T00:18:59.847Z,91.70
2017-09-03T00:21:27.409Z,91.50
2017-09-03T00:23:54.950Z,91.70
2017-09-03T00:26:22.422Z,91.70
2017-09-03T00:28:49.983Z,91.80
2017-09-03T00:31:17.539Z,91.60
2017-09-03T00:33:46.740Z,91.60
2017-09-03T00:36:14.226Z,92.00
2017-09-03T00:38:42.671Z,92.70
2017-09-03T00:41:10.232Z,92.80
2017-09-03T00:43:37.698Z,92.50
2017-09-03T00:46:05.231Z,92.20
2017-09-03T00:48:32.695Z,91.70
2017-09-03T00:51:00.260Z,91.60
2017-09-03T00:53:27.730Z,91.70
2017-09-03T00:55:55.203Z,91.40
2017-09-03T00:58:22.730Z,91.40
2017-09-03T01:00:50.192Z,91.40
2017-09-03T01:03:17.743Z,91.50
2017-09-03T01:05:45.307Z,91.10
2017-09-03T01:08:12.863Z,91.10
2017-09-03T01:10:40.431Z,91.00
2017-09-03T01:13:07.931Z,91.20
2017-09-03T01:15:35.434Z,91.60
2017-09-03T01:18:02.908Z,92.00
2017-09-03T01:20:30.388Z,92.00
2017-09-03T01:22:57.911Z,92.00
2017-09-03T01:25:25.375Z,91.90
2017-09-03T01:27:52.864Z,92.00
2017-09-03T01:30:20.378Z,92.10
2017-09-03T01:32:47.848Z,92.10
2017-09-03T01:35:15.317Z,92.00
2017-09-03T01:37:42.782Z,91.70
2017-09-03T01:40:10.239Z,91.60
2017-09-03T01:42:37.719Z,91.80
2017-09-03T01:45:05.188Z,91.60
2017-09-03T01:47:32.691Z,91.90
2017-09-03T01:50:00.240Z,91.90
2017-09-03T01:52:27.940Z,91.80
2017-09-03T01:54:55.460Z,92.10
2017-09-03T01:57:23.020Z,92.10
2017-09-03T01:59:50.483Z,91.60
2017-09-03T02:02:18.751Z,91.80
2017-09-03T02:04:46.307Z,91.80
2017-09-03T02:07:13.880Z,91.90
2017-09-03T02:09:42.151Z,92.00
2017-09-03T02:12:09.708Z,91.90
2017-09-03T02:14:37.299Z,91.90
2017-09-03T02:17:04.762Z,91.80
2017-09-03T02:19:32.282Z,91.50
2017-09-03T02:21:59.834Z,91.80
2017-09-03T02:24:27.300Z,92.10
2017-09-03T02:26:54.815Z,92.40
2017-09-03T02:29:22.275Z,92.50
2017-09-03T02:31:49.748Z,92.50
2017-09-03T02:34:17.232Z,92.20
2017-09-03T02:36:44.778Z,92.10
2017-09-03T02:39:12.331Z,92.20
2017-09-03T02:41:39.893Z,92.30
2017-09-03T02:44:07.468Z,92.50
2017-09-03T02:46:35.707Z,92.30
2017-09-03T02:49:03.176Z,92.20
2017-09-03T02:51:30.639Z,92.40
2017-09-03T02:53:58.103Z,92.40
2017-09-03T02:56:25.670Z,92.60
2017-09-03T02:58:53.220Z,93.00
2017-09-03T03:01:20.687Z,92.80
2017-09-03T03:03:48.932Z,93.20
2017-09-03T03:06:16.408Z,92.70
2017-09-03T03:08:43.962Z,92.60
2017-09-03T03:11:11.440Z,92.70
2017-09-03T03:13:38.979Z,92.50
2017-09-03T03:16:06.438Z,92.30
2017-09-03T03:18:33.990Z,92.50
2017-09-03T03:21:01.464Z,92.40
2017-09-03T03:23:28.923Z,92.30
2017-09-03T03:25:56.394Z,92.40
2017-09-03T03:28:24.636Z,92.70
2017-09-03T03:30:52.104Z,92.70
2017-09-03T03:33:19.579Z,92.80
2017-09-03T03:35:47.947Z,92.80
2017-09-03T03:38:16.180Z,92.30
2017-09-03T03:40:43.758Z,92.30
2017-09-03T03:43:11.320Z,92.40
2017-09-03T03:45:38.788Z,92.40
2017-09-03T03:48:06.255Z,92.40
2017-09-03T03:50:33.730Z,92.40
2017-09-03T03:53:01.186Z,92.40
2017-09-03T03:55:28.663Z,92.20
2017-09-03T03:57:56.215Z,92.30
2017-09-03T04:00:23.718Z,92.60
2017-09-03T04:02:51.285Z,92.50
2017-09-03T04:05:18.841Z,92.40
2017-09-03T04:07:46.404Z,92.40
2017-09-03T04:10:13.969Z,92.50
2017-09-03T04:12:41.521Z,92.30
2017-09-03T04:15:09.900Z,92.40
2017-09-03T04:17:37.456Z,92.50
2017-09-03T04:20:05.220Z,92.40
2017-09-03T04:22:32.676Z,92.50
2017-09-03T04:25:00.231Z,92.60
2017-09-03T04:27:27.704Z,93.10
2017-09-03T04:29:55.251Z,92.60
2017-09-03T04:32:22.719Z,92.40
2017-09-03T04:34:50.188Z,92.20
2017-09-03T04:37:17.720Z,92.20
2017-09-03T04:39:45.271Z,92.40
2017-09-03T04:42:12.726Z,92.50
2017-09-03T04:44:40.200Z,92.50
2017-09-03T04:47:07.776Z,92.30
2017-09-03T04:49:35.244Z,92.40
2017-09-03T04:52:02.768Z,92.40
2017-09-03T04:54:30.239Z,92.50
2017-09-03T04:56:57.804Z,92.30
2017-09-03T04:59:26.027Z,92.70
2017-09-03T05:01:53.615Z,92.70
2017-09-03T05:04:21.179Z,92.70
2017-09-03T05:06:48.740Z,92.70
2017-09-03T05:09:16.287Z,92.80
2017-09-03T05:11:43.855Z,92.70
2017-09-03T05:14:11.320Z,92.50
2017-09-03T05:16:39.582Z,92.60
2017-09-03T05:19:07.939Z,92.60
2017-09-03T05:21:35.423Z,92.70
2017-09-03T05:24:02.896Z,92.70
2017-09-03T05:26:30.651Z,92.70
2017-09-03T05:28:58.199Z,92.80
2017-09-03T05:31:25.775Z,92.80
2017-09-03T05:33:53.252Z,92.90
2017-09-03T05:36:20.724Z,93.20
2017-09-03T05:38:48.201Z,93.20
2017-09-03T05:41:15.684Z,93.20
2017-09-03T05:43:43.141Z,93.30
2017-09-03T05:46:10.725Z,93.50
2017-09-03T05:48:38.191Z,93.60
2017-09-03T05:51:05.707Z,93.30
2017-09-03T05:53:33.176Z,93.50
2017-09-03T05:56:00.640Z,93.10
2017-09-03T05:58:28.179Z,92.90
2017-09-03T06:00:55.664Z,93.00
2017-09-03T06:03:23.203Z,93.10
2017-09-03T06:05:50.664Z,93.40
2017-09-03T06:08:18.143Z,93.50
2017-09-03T06:10:45.675Z,93.70
2017-09-03T06:13:13.146Z,94.20
2017-09-03T06:15:40.614Z,94.70
2017-09-03T06:18:08.094Z,95.00
2017-09-03T06:20:35.560Z,95.20
2017-09-03T06:23:03.208Z,95.30
2017-09-03T06:25:30.718Z,95.30
2017-09-03T06:27:59.044Z,95.30
2017-09-03T06:30:27.084Z,95.30
2017-09-03T06:32:54.626Z,95.20
2017-09-03T06:35:22.185Z,95.50
2017-09-03T06:37:49.679Z,95.30
2017-09-03T06:40:17.151Z,95.20
2017-09-03T06:42:44.688Z,94.80
2017-09-03T06:45:13.487Z,94.70
2017-09-03T06:47:41.023Z,94.80
2017-09-03T06:50:08.975Z,95.00
2017-09-03T06:52:36.451Z,94.80
2017-09-03T06:55:03.916Z,93.30
2017-09-03T06:57:31.387Z,91.80
2017-09-03T06:59:58.900Z,90.80
2017-09-03T07:02:26.367Z,90.10
2017-09-03T07:04:53.829Z,89.50
2017-09-03T07:07:21.303Z,89.70
2017-09-03T07:09:48.775Z,89.10
2017-09-03T07:12:16.240Z,88.80
2017-09-03T07:14:43.715Z,89.10
2017-09-03T07:17:11.175Z,89.60
2017-09-03T07:19:38.643Z,89.80
2017-09-03T07:22:06.103Z,90.30
2017-09-03T07:24:33.569Z,90.40
2017-09-03T07:27:01.047Z,90.60
2017-09-03T07:29:28.535Z,90.70
2017-09-03T07:31:55.999Z,90.70
2017-09-03T07:34:23.475Z,91.00
2017-09-03T07:36:50.963Z,90.90
2017-09-03T07:39:18.508Z,90.60
2017-09-03T07:41:45.980Z,90.30
2017-09-03T07:44:13.435Z,90.90
2017-09-03T07:46:41.399Z,90.80
2017-09-03T07:49:09.705Z,90.50
2017-09-03T07:51:37.169Z,90.20
2017-09-03T07:54:04.672Z,87.90
2017-09-03T07:56:32.435Z,87.40
2017-09-03T07:58:59.892Z,88.20
2017-09-03T08:01:27.358Z,85.50
2017-09-03T08:03:55.092Z,84.80
2017-09-03T08:06:22.545Z,85.60
2017-09-03T08:08:50.136Z,84.60
2017-09-03T08:11:17.891Z,83.90
2017-09-03T08:13:45.352Z,83.80
2017-09-03T08:16:12.804Z,82.90
2017-09-03T08:18:40.418Z,82.50
2017-09-03T08:21:07.890Z,82.50
2017-09-03T08:23:35.536Z,82.40
2017-09-03T08:26:03.040Z,82.40
2017-09-03T08:28:30.499Z,82.30
2017-09-03T08:30:57.960Z,80.60
2017-09-03T08:33:25.430Z,80.60
2017-09-03T08:35:53.647Z,80.50
2017-09-03T08:38:21.108Z,80.50
2017-09-03T08:40:48.580Z,80.40
2017-09-03T08:43:16.059Z,78.30
2017-09-03T08:45:43.521Z,77.30
2017-09-03T08:48:11.073Z,76.40
2017-09-03T08:50:38.527Z,75.50
2017-09-03T08:53:05.983Z,75.50
2017-09-03T08:55:33.453Z,76.40
2017-09-03T08:58:00.916Z,76.10
2017-09-03T09:00:29.181Z,74.90
2017-09-03T09:02:56.639Z,73.70
2017-09-03T09:05:24.099Z,74.30
2017-09-03T09:07:52.467Z,73.50
2017-09-03T09:10:19.945Z,74.60
2017-09-03T09:12:48.059Z,72.60
2017-09-03T09:15:15.540Z,73.80
2017-09-03T09:17:43.337Z,73.70
2017-09-03T09:20:10.792Z,73.80
2017-09-03T09:22:38.243Z,73.20
2017-09-03T09:25:06.791Z,72.60
2017-09-03T09:27:34.243Z,72.60
2017-09-03T09:30:01.709Z,70.30
2017-09-03T09:32:30.004Z,68.20
2017-09-03T09:34:57.564Z,68.20
2017-09-03T09:37:25.900Z,68.10
2017-09-03T09:39:53.408Z,67.30
2017-09-03T09:42:20.866Z,66.70
2017-09-03T09:44:49.140Z,64.60
2017-09-03T09:47:17.427Z,63.80
2017-09-03T09:49:44.887Z,63.80
2017-09-03T09:52:12.369Z,64.00
2017-09-03T09:54:39.836Z,63.60
2017-09-03T09:57:07.296Z,64.00
2017-09-03T09:59:34.759Z,64.70
2017-09-03T10:02:02.347Z,65.30
2017-09-03T10:04:29.824Z,65.20
2017-09-03T10:06:58.064Z,65.10
2017-09-03T10:09:26.149Z,65.10
2017-09-03T10:11:53.620Z,64.20
2017-09-03T10:14:21.089Z,65.50
2017-09-03T10:16:48.618Z,65.10
2017-09-03T10:19:16.075Z,64.30
2017-09-03T10:21:43.537Z,62.60
2017-09-03T10:24:11.046Z,62.90
2017-09-03T10:26:38.537Z,61.60
2017-09-03T10:29:06.003Z,61.40
2017-09-03T10:31:33.479Z,61.80
2017-09-03T10:34:00.924Z,61.70
2017-09-03T10:36:29.291Z,60.10
2017-09-03T10:38:56.768Z,59.70
2017-09-03T10:41:24.991Z,59.10
2017-09-03T10:43:53.303Z,59.40
2017-09-03T10:46:20.776Z,59.50
2017-09-03T10:48:48.271Z,58.50
2017-09-03T10:51:15.818Z,58.30
2017-09-03T10:53:43.355Z,58.60
2017-09-03T10:56:10.883Z,57.00
2017-09-03T10:58:38.352Z,57.20
2017-09-03T11:01:05.836Z,55.60
2017-09-03T11:03:33.363Z,55.10
2017-09-03T11:06:00.830Z,55.70
2017-09-03T11:08:28.304Z,55.30
2017-09-03T11:10:55.775Z,56.00
2017-09-03T11:13:23.227Z,55.10
2017-09-03T11:15:50.694Z,55.60
2017-09-03T11:18:18.160Z,55.40
2017-09-03T11:20:46.143Z,55.70
2017-09-03T11:23:13.940Z,54.60
2017-09-03T11:25:41.467Z,55.50
2017-09-03T11:28:08.937Z,54.60
2017-09-03T11:30:36.413Z,54.70
2017-09-03T11:33:04.731Z,56.00
2017-09-03T11:35:32.251Z,55.90
2017-09-03T11:37:59.741Z,54.50
2017-09-03T11:40:27.892Z,54.50
2017-09-03T11:42:55.339Z,54.60
2017-09-03T11:45:22.833Z,53.50
2017-09-03T11:47:50.295Z,54.20
2017-09-03T11:50:17.754Z,53.80
2017-09-03T11:52:45.352Z,53.10
2017-09-03T11:55:12.807Z,53.20
2017-09-03T11:57:40.268Z,53.50
2017-09-03T12:00:07.742Z,53.60
2017-09-03T12:02:35.203Z,53.20
2017-09-03T12:05:02.656Z,52.40
2017-09-03T12:07:30.124Z,53.00
2017-09-03T12:09:57.659Z,53.00
2017-09-03T12:12:25.219Z,52.90
2017-09-03T12:14:52.685Z,53.10
2017-09-03T12:17:20.158Z,54.10
2017-09-03T12:19:47.679Z,54.80
2017-09-03T12:22:15.159Z,54.30
2017-09-03T12:24:42.764Z,53.50
2017-09-03T12:27:10.214Z,53.70
2017-09-03T12:29:37.811Z,54.20
2017-09-03T12:32:05.322Z,53.30
2017-09-03T12:34:32.798Z,54.00
2017-09-03T12:37:00.262Z,54.70
2017-09-03T12:39:27.767Z,53.80
2017-09-03T12:41:56.016Z,54.10
2017-09-03T12:44:23.592Z,54.00
2017-09-03T12:46:51.831Z,52.50
2017-09-03T12:49:19.313Z,52.50
2017-09-03T12:51:46.783Z,52.90
2017-09-03T12:54:14.258Z,52.80
2017-09-03T12:56:41.726Z,51.80
2017-09-03T12:59:09.203Z,51.40
2017-09-03T13:01:37.176Z,51.40
2017-09-03T13:04:04.671Z,50.70
2017-09-03T13:06:32.216Z,51.50
2017-09-03T13:08:59.819Z,52.00
2017-09-03T13:11:27.350Z,51.60
2017-09-03T13:13:55.611Z,51.30
2017-09-03T13:16:23.068Z,51.10
2017-09-03T13:18:50.530Z,51.60
2017-09-03T13:21:18.075Z,51.10
2017-09-03T13:23:46.296Z,50.40
2017-09-03T13:26:14.003Z,51.40
2017-09-03T13:28:41.594Z,52.40
2017-09-03T13:31:09.844Z,52.30
2017-09-03T13:33:37.407Z,49.80
2017-09-03T13:36:04.890Z,50.20
2017-09-03T13:38:32.412Z,50.30
2017-09-03T13:40:59.879Z,51.30
2017-09-03T13:43:27.415Z,51.40
2017-09-03T13:45:54.904Z,51.70
2017-09-03T13:48:22.460Z,51.70
2017-09-03T13:50:49.989Z,53.30
2017-09-03T13:53:17.443Z,52.20
2017-09-03T13:55:44.942Z,52.10
2017-09-03T13:58:12.407Z,52.00
2017-09-03T14:00:39.944Z,51.50
2017-09-03T14:03:07.509Z,51.80
2017-09-03T14:05:35.059Z,51.40
2017-09-03T14:08:02.513Z,51.40
2017-09-03T14:10:29.972Z,51.50
2017-09-03T14:12:57.443Z,51.00
2017-09-03T14:15:24.930Z,51.40
2017-09-03T14:17:52.418Z,50.30
2017-09-03T14:20:19.903Z,49.90
2017-09-03T14:22:48.600Z,51.10
2017-09-03T14:25:16.074Z,52.10
2017-09-03T14:27:43.554Z,52.70
2017-09-03T14:30:11.059Z,52.40
2017-09-03T14:32:38.516Z,52.00
2017-09-03T14:35:06.090Z,51.00
2017-09-03T14:37:33.662Z,51.20
2017-09-03T14:40:01.119Z,52.20
2017-09-03T14:42:29.390Z,54.30
2017-09-03T14:44:56.847Z,54.30
2017-09-03T14:47:24.322Z,54.30
2017-09-03T14:49:51.836Z,54.40
2017-09-03T14:52:19.291Z,54.80
2017-09-03T14:54:46.983Z,54.30
2017-09-03T14:57:15.331Z,54.60
2017-09-03T14:59:42.788Z,54.60
2017-09-03T15:02:10.238Z,54.50
2017-09-03T15:04:37.711Z,54.70
2017-09-03T15:07:05.260Z,52.70
2017-09-03T15:09:32.727Z,52.00
2017-09-03T15:12:00.479Z,51.70
2017-09-03T15:14:27.936Z,50.90
2017-09-03T15:16:55.386Z,52.10
2017-09-03T15:19:22.867Z,50.70
2017-09-03T15:21:50.339Z,51.90
2017-09-03T15:24:17.830Z,52.20
2017-09-03T15:26:45.315Z,53.20
2017-09-03T15:29:12.775Z,53.00
2017-09-03T15:31:40.307Z,52.90
2017-09-03T15:34:08.652Z,53.40
2017-09-03T15:36:36.167Z,53.00
2017-09-03T15:39:03.627Z,53.80
2017-09-03T15:41:31.198Z,54.40
2017-09-03T15:43:58.656Z,55.10
2017-09-03T15:46:27.776Z,55.10
2017-09-03T15:48:55.238Z,54.70
2017-09-03T15:51:22.748Z,53.90
2017-09-03T15:53:50.203Z,56.10
2017-09-03T15:56:17.882Z,56.70
2017-09-03T15:58:45.427Z,56.20
2017-09-03T16:01:12.904Z,56.60
2017-09-03T16:03:40.439Z,56.10
2017-09-03T16:06:07.954Z,55.20
2017-09-03T16:08:35.459Z,56.40
2017-09-03T16:11:03.239Z,56.90
2017-09-03T16:13:30.704Z,55.30
2017-09-03T16:15:58.238Z,55.90
2017-09-03T16:18:25.827Z,55.30
2017-09-03T16:20:53.279Z,56.10
2017-09-03T16:23:20.740Z,56.20
2017-09-03T16:25:48.224Z,56.10
2017-09-03T16:28:15.683Z,55.20
2017-09-03T16:30:43.720Z,54.40
2017-09-03T16:33:11.211Z,54.80
2017-09-03T16:35:38.676Z,55.50
2017-09-03T16:38:06.169Z,55.10
2017-09-03T16:40:33.922Z,56.00
2017-09-03T16:43:01.386Z,56.40
2017-09-03T16:45:28.955Z,56.00
2017-09-03T16:47:56.431Z,56.50
2017-09-03T16:50:24.664Z,56.20
2017-09-03T16:52:52.134Z,56.20
2017-09-03T16:55:19.603Z,56.50
2017-09-03T16:57:47.976Z,56.60
2017-09-03T17:00:15.452Z,56.70
2017-09-03T17:02:43.725Z,56.80
2017-09-03T17:05:11.951Z,57.60
2017-09-03T17:07:39.416Z,57.60
2017-09-03T17:10:07.739Z,58.10
2017-09-03T17:12:35.199Z,58.10
2017-09-03T17:15:02.654Z,58.60
2017-09-03T17:17:30.148Z,59.00
2017-09-03T17:19:59.596Z,58.80
2017-09-03T17:22:27.836Z,59.60
2017-09-03T17:24:56.086Z,60.50
2017-09-03T17:27:23.551Z,60.50
2017-09-03T17:29:53.625Z,60.30
2017-09-03T17:32:22.151Z,63.10
2017-09-03T17:35:05.511Z,63.00
2017-09-03T17:37:38.521Z,63.60
2017-09-03T17:40:08.401Z,63.00
2017-09-03T17:42:38.500Z,64.70
2017-09-03T17:45:05.973Z,64.80
2017-09-03T17:47:33.436Z,65.20
2017-09-03T17:50:00.899Z,66.50
2017-09-03T17:52:28.365Z,67.80
2017-09-03T17:54:55.826Z,69.40
2017-09-03T17:57:23.301Z,68.90
2017-09-03T17:59:50.808Z,69.40
2017-09-03T18:02:18.267Z,69.90
2017-09-03T18:04:55.642Z,70.30
2017-09-03T18:07:23.114Z,71.10
2017-09-03T18:09:50.578Z,71.40
2017-09-03T18:12:18.047Z,71.30
2017-09-03T18:14:46.187Z,72.10
2017-09-03T18:17:13.668Z,72.00
2017-09-03T18:19:41.692Z,72.20
2017-09-03T18:22:09.168Z,72.60
2017-09-03T18:24:36.751Z,72.60
2017-09-03T18:27:04.220Z,72.40
2017-09-03T18:29:32.621Z,72.20
2017-09-03T18:32:00.084Z,72.60
2017-09-03T18:34:28.111Z,72.30
2017-09-03T18:36:55.619Z,72.90
2017-09-03T18:39:23.081Z,75.30
2017-09-03T18:41:51.447Z,74.50
2017-09-03T18:44:33.783Z,74.50
2017-09-03T18:47:01.276Z,75.00
2017-09-03T18:49:28.742Z,75.40
2017-09-03T18:52:04.915Z,76.00
2017-09-03T18:54:33.175Z,75.70
2017-09-03T18:57:00.636Z,75.70
2017-09-03T18:59:30.507Z,75.50
2017-09-03T19:01:57.991Z,75.50
2017-09-03T19:04:28.066Z,76.00
2017-09-03T19:06:55.543Z,76.60
2017-09-03T19:09:23.020Z,76.60
2017-09-03T19:11:50.539Z,75.40
2017-09-03T19:14:18.027Z,75.40
2017-09-03T19:16:45.520Z,75.20
2017-09-03T19:19:12.996Z,75.60
2017-09-03T19:21:40.488Z,75.50
2017-09-03T19:24:07.953Z,75.60
2017-09-03T19:26:35.439Z,76.50
2017-09-03T19:29:02.899Z,77.70
2017-09-03T19:31:31.138Z,79.40
2017-09-03T19:33:58.621Z,79.40
2017-09-03T19:36:27.004Z,79.10
2017-09-03T19:38:54.469Z,79.20
2017-09-03T19:41:23.034Z,78.70
2017-09-03T19:43:50.515Z,78.60
2017-09-03T19:46:18.046Z,78.80
2017-09-03T19:48:46.282Z,79.20
2017-09-03T19:51:13.782Z,79.60
2017-09-03T19:53:41.273Z,79.60
2017-09-03T19:56:08.757Z,79.80
2017-09-03T19:58:36.220Z,80.00
2017-09-03T20:01:03.707Z,80.10
2017-09-03T20:03:31.267Z,80.10
2017-09-03T20:05:58.742Z,80.20
2017-09-03T20:08:26.219Z,80.60
2017-09-03T20:10:53.728Z,80.80
2017-09-03T20:13:21.245Z,81.00
2017-09-03T20:15:48.840Z,81.50
2017-09-03T20:18:16.386Z,81.70
2017-09-03T20:20:43.863Z,82.30
2017-09-03T20:23:11.355Z,82.00
2017-09-03T20:25:38.893Z,82.30
2017-09-03T20:28:07.064Z,82.20
2017-09-03T20:30:34.576Z,83.50
2017-09-03T20:33:02.045Z,82.40
2017-09-03T20:35:29.519Z,83.30
2017-09-03T20:37:56.995Z,84.00
2017-09-03T20:40:24.548Z,84.30
2017-09-03T20:42:52.048Z,84.00
2017-09-03T20:45:19.519Z,83.40
2017-09-03T20:47:47.311Z,83.50
2017-09-03T20:50:14.801Z,83.80
2017-09-03T20:52:42.266Z,84.00
2017-09-03T20:55:09.799Z,84.30
2017-09-03T20:57:38.072Z,84.50
2017-09-03T21:00:05.535Z,84.50
2017-09-03T21:02:33.024Z,84.70
2017-09-03T21:05:00.491Z,84.70
2017-09-03T21:07:27.967Z,84.90
2017-09-03T21:09:55.565Z,85.00
2017-09-03T21:12:23.140Z,85.10
2017-09-03T21:14:50.600Z,85.30
2017-09-03T21:17:18.132Z,85.30
2017-09-03T21:19:45.697Z,85.60
2017-09-03T21:22:13.160Z,85.50
2017-09-03T21:24:40.648Z,85.60
2017-09-03T21:27:08.884Z,85.80
2017-09-03T21:29:36.404Z,85.80
2017-09-03T21:32:03.878Z,85.80
2017-09-03T21:34:31.356Z,86.10
2017-09-03T21:36:58.913Z,86.00
2017-09-03T21:39:27.307Z,86.10
2017-09-03T21:41:54.847Z,86.30
2017-09-03T21:44:22.312Z,86.60
2017-09-03T21:46:49.792Z,87.30
2017-09-03T21:49:17.318Z,86.40
2017-09-03T21:51:44.880Z,86.30
2017-09-03T21:54:12.648Z,86.20
2017-09-03T21:56:40.582Z,86.40
2017-09-03T21:59:08.048Z,86.40
2017-09-03T22:01:35.634Z,86.60
2017-09-03T22:04:03.196Z,86.70
2017-09-03T22:06:30.651Z,86.60
2017-09-03T22:08:58.836Z,87.50
2017-09-03T22:11:26.378Z,87.30
2017-09-03T22:13:53.849Z,87.30
2017-09-03T22:16:21.327Z,87.50
2017-09-03T22:18:48.838Z,87.30
2017-09-03T22:21:16.403Z,87.10
2017-09-03T22:23:43.969Z,87.20
2017-09-03T22:26:11.540Z,87.40
2017-09-03T22:28:39.795Z,87.40
2017-09-03T22:31:07.350Z,87.40
2017-09-03T22:33:34.915Z,87.30
2017-09-03T22:36:02.472Z,87.20
2017-09-03T22:38:29.988Z,87.50
2017-09-03T22:40:57.447Z,87.90
2017-09-03T22:43:24.947Z,88.00
2017-09-03T22:45:52.449Z,88.30
2017-09-03T22:48:19.967Z,88.60
2017-09-03T22:50:47.426Z,88.20
2017-09-03T22:53:14.911Z,89.00
2017-09-03T22:55:42.374Z,88.00
2017-09-03T22:58:09.894Z,88.10
2017-09-03T23:00:37.372Z,88.20
2017-09-03T23:03:04.906Z,88.00
2017-09-03T23:05:32.364Z,88.00
2017-09-03T23:07:59.923Z,88.30
2017-09-03T23:10:27.474Z,88.50
2017-09-03T23:12:55.035Z,88.60
2017-09-03T23:15:22.553Z,88.70
2017-09-03T23:17:50.092Z,89.20
2017-09-03T23:20:17.546Z,89.60
2017-09-03T23:22:45.230Z,89.30
2017-09-03T23:25:12.691Z,89.30
2017-09-03T23:27:40.147Z,89.30
2017-09-03T23:30:07.628Z,89.70
2017-09-03T23:32:35.199Z,89.40
2017-09-03T23:35:03.484Z,89.50
2017-09-03T23:37:30.955Z,89.50
2017-09-03T23:39:58.427Z,89.80
2017-09-03T23:42:25.931Z,89.80
2017-09-03T23:44:53.519Z,89.80
2017-09-03T23:47:21.581Z,89.70
2017-09-03T23:49:49.042Z,89.30
2017-09-03T23:52:16.520Z,89.70
2017-09-03T23:54:44.054Z,89.90
2017-09-03T23:57:11.525Z,90.20
2017-09-03T23:59:39.759Z,90.00
